sensor_id;sensor_type;location;lat;lon;timestamp;P1;durP1;ratioP1;P2;durP2;ratioP2
11263;SDS011;5689;48.798;9.070;2023-03-17T00:01:42;0.90;;;0.90;;
11263;SDS011;5689;48.798;9.070;2023-03-17T00:04:13;0.70;;;0.70;;
11263;SDS011;5689;48.798;9.070;2023-03-17T00:06:41;0.60;;;0.60;;
11263;SDS011;5689;48.798;9.070;2023-03-17T00:09:11;0.60;;;0.60;;
11263;SDS011;5689;48.798;9.070;2023-03-17T00:11:40;0.60;;;0.60;;
11263;SDS011;5689;48.798;9.070;2023-03-17T00:14:08;0.70;;;0.70;;
11263;SDS011;5689;48.798;9.070;2023-03-17T00:16:37;0.60;;;0.60;;
11263;SDS011;5689;48.798;9.070;2023-03-17T00:19:08;0.67;;;0.67;;
11263;SDS011;5689;48.798;9.070;2023-03-17T00:21:41;0.70;;;0.70;;
11263;SDS011;5689;48.798;9.070;2023-03-17T00:24:11;0.70;;;0.70;;
11263;SDS011;5689;48.798;9.070;2023-03-17T00:26:41;0.60;;;0.60;;
11263;SDS011;5689;48.798;9.070;2023-03-17T00:29:09;0.87;;;0.87;;
11263;SDS011;5689;48.798;9.070;2023-03-17T00:31:38;0.70;;;0.70;;
11263;SDS011;5689;48.798;9.070;2023-03-17T00:34:08;0.70;;;0.70;;
11263;SDS011;5689;48.798;9.070;2023-03-17T00:36:38;0.70;;;0.70;;
11263;SDS011;5689;48.798;9.070;2023-03-17T00:39:10;0.60;;;0.60;;
11263;SDS011;5689;48.798;9.070;2023-03-17T00:41:39;0.60;;;0.60;;
11263;SDS011;5689;48.798;9.070;2023-03-17T00:44:07;0.60;;;0.60;;
11263;SDS011;5689;48.798;9.070;2023-03-17T00:46:36;0.57;;;0.57;;
11263;SDS011;5689;48.798;9.070;2023-03-17T00:49:09;0.60;;;0.60;;
11263;SDS011;5689;48.798;9.070;2023-03-17T00:51:41;0.50;;;0.50;;
11263;SDS011;5689;48.798;9.070;2023-03-17T00:54:09;0.60;;;0.60;;
11263;SDS011;5689;48.798;9.070;2023-03-17T00:56:39;0.60;;;0.60;;
11263;SDS011;5689;48.798;9.070;2023-03-17T00:59:11;0.60;;;0.60;;
11263;SDS011;5689;48.798;9.070;2023-03-17T01:01:45;0.60;;;0.60;;
11263;SDS011;5689;48.798;9.070;2023-03-17T01:04:14;0.60;;;0.60;;
11263;SDS011;5689;48.798;9.070;2023-03-17T01:06:44;0.70;;;0.70;;
11263;SDS011;5689;48.798;9.070;2023-03-17T01:09:13;0.50;;;0.50;;
11263;SDS011;5689;48.798;9.070;2023-03-17T01:11:45;0.50;;;0.50;;
11263;SDS011;5689;48.798;9.070;2023-03-17T01:14:13;0.57;;;0.57;;
11263;SDS011;5689;48.798;9.070;2023-03-17T01:16:42;0.60;;;0.60;;
11263;SDS011;5689;48.798;9.070;2023-03-17T01:19:11;0.60;;;0.60;;
11263;SDS011;5689;48.798;9.070;2023-03-17T01:21:40;0.60;;;0.60;;
11263;SDS011;5689;48.798;9.070;2023-03-17T01:24:09;0.60;;;0.60;;
11263;SDS011;5689;48.798;9.070;2023-03-17T01:26:38;0.60;;;0.60;;
11263;SDS011;5689;48.798;9.070;2023-03-17T01:29:08;0.70;;;0.70;;
11263;SDS011;5689;48.798;9.070;2023-03-17T01:31:36;0.60;;;0.60;;
11263;SDS011;5689;48.798;9.070;2023-03-17T01:34:04;0.70;;;0.70;;
11263;SDS011;5689;48.798;9.070;2023-03-17T01:36:32;0.60;;;0.60;;
11263;SDS011;5689;48.798;9.070;2023-03-17T01:39:01;0.53;;;0.53;;
11263;SDS011;5689;48.798;9.070;2023-03-17T01:41:31;0.70;;;0.70;;
11263;SDS011;5689;48.798;9.070;2023-03-17T01:44:00;0.60;;;0.60;;
11263;SDS011;5689;48.798;9.070;2023-03-17T01:46:30;0.60;;;0.60;;
11263;SDS011;5689;48.798;9.070;2023-03-17T01:49:20;0.60;;;0.60;;
11263;SDS011;5689;48.798;9.070;2023-03-17T01:51:56;0.60;;;0.60;;
11263;SDS011;5689;48.798;9.070;2023-03-17T01:54:29;0.57;;;0.57;;
11263;SDS011;5689;48.798;9.070;2023-03-17T01:57:03;0.60;;;0.60;;
11263;SDS011;5689;48.798;9.070;2023-03-17T01:59:37;0.60;;;0.60;;
11263;SDS011;5689;48.798;9.070;2023-03-17T02:02:13;0.50;;;0.50;;
11263;SDS011;5689;48.798;9.070;2023-03-17T02:04:46;0.60;;;0.60;;
11263;SDS011;5689;48.798;9.070;2023-03-17T02:07:15;0.60;;;0.60;;
11263;SDS011;5689;48.798;9.070;2023-03-17T02:09:44;0.60;;;0.60;;
11263;SDS011;5689;48.798;9.070;2023-03-17T02:12:12;0.60;;;0.60;;
11263;SDS011;5689;48.798;9.070;2023-03-17T02:14:40;0.60;;;0.60;;
11263;SDS011;5689;48.798;9.070;2023-03-17T02:17:12;0.60;;;0.60;;
11263;SDS011;5689;48.798;9.070;2023-03-17T02:19:41;0.60;;;0.60;;
11263;SDS011;5689;48.798;9.070;2023-03-17T02:22:10;0.60;;;0.60;;
11263;SDS011;5689;48.798;9.070;2023-03-17T02:24:39;0.60;;;0.60;;
11263;SDS011;5689;48.798;9.070;2023-03-17T02:27:11;0.50;;;0.50;;
11263;SDS011;5689;48.798;9.070;2023-03-17T02:29:43;0.60;;;0.60;;
11263;SDS011;5689;48.798;9.070;2023-03-17T02:32:13;0.60;;;0.60;;
11263;SDS011;5689;48.798;9.070;2023-03-17T02:34:42;0.60;;;0.60;;
11263;SDS011;5689;48.798;9.070;2023-03-17T02:37:13;0.60;;;0.60;;
11263;SDS011;5689;48.798;9.070;2023-03-17T02:39:41;0.60;;;0.60;;
11263;SDS011;5689;48.798;9.070;2023-03-17T02:42:10;0.60;;;0.60;;
11263;SDS011;5689;48.798;9.070;2023-03-17T02:44:39;0.60;;;0.60;;
11263;SDS011;5689;48.798;9.070;2023-03-17T02:47:07;0.60;;;0.60;;
11263;SDS011;5689;48.798;9.070;2023-03-17T02:49:35;0.60;;;0.60;;
11263;SDS011;5689;48.798;9.070;2023-03-17T02:52:05;0.70;;;0.70;;
11263;SDS011;5689;48.798;9.070;2023-03-17T02:54:35;0.60;;;0.60;;
11263;SDS011;5689;48.798;9.070;2023-03-17T02:57:03;0.60;;;0.60;;
11263;SDS011;5689;48.798;9.070;2023-03-17T02:59:32;0.70;;;0.70;;
11263;SDS011;5689;48.798;9.070;2023-03-17T03:02:00;0.63;;;0.63;;
11263;SDS011;5689;48.798;9.070;2023-03-17T03:04:28;0.50;;;0.50;;
11263;SDS011;5689;48.798;9.070;2023-03-17T03:06:56;0.67;;;0.67;;
11263;SDS011;5689;48.798;9.070;2023-03-17T03:09:24;0.50;;;0.50;;
11263;SDS011;5689;48.798;9.070;2023-03-17T03:11:54;0.60;;;0.60;;
11263;SDS011;5689;48.798;9.070;2023-03-17T03:14:22;0.60;;;0.60;;
11263;SDS011;5689;48.798;9.070;2023-03-17T03:16:50;0.60;;;0.60;;
11263;SDS011;5689;48.798;9.070;2023-03-17T03:19:18;0.60;;;0.60;;
11263;SDS011;5689;48.798;9.070;2023-03-17T03:21:47;0.63;;;0.63;;
11263;SDS011;5689;48.798;9.070;2023-03-17T03:24:16;0.70;;;0.70;;
11263;SDS011;5689;48.798;9.070;2023-03-17T03:26:44;0.70;;;0.70;;
11263;SDS011;5689;48.798;9.070;2023-03-17T03:29:13;0.67;;;0.67;;
11263;SDS011;5689;48.798;9.070;2023-03-17T03:31:42;0.50;;;0.50;;
11263;SDS011;5689;48.798;9.070;2023-03-17T03:34:10;0.70;;;0.70;;
11263;SDS011;5689;48.798;9.070;2023-03-17T03:36:38;0.70;;;0.70;;
11263;SDS011;5689;48.798;9.070;2023-03-17T03:39:05;0.70;;;0.70;;
11263;SDS011;5689;48.798;9.070;2023-03-17T03:41:34;0.70;;;0.70;;
11263;SDS011;5689;48.798;9.070;2023-03-17T03:44:03;0.70;;;0.70;;
11263;SDS011;5689;48.798;9.070;2023-03-17T03:46:33;0.70;;;0.70;;
11263;SDS011;5689;48.798;9.070;2023-03-17T03:49:00;0.70;;;0.70;;
11263;SDS011;5689;48.798;9.070;2023-03-17T03:51:28;0.63;;;0.63;;
11263;SDS011;5689;48.798;9.070;2023-03-17T03:53:56;0.77;;;0.77;;
11263;SDS011;5689;48.798;9.070;2023-03-17T03:56:24;0.80;;;0.80;;
11263;SDS011;5689;48.798;9.070;2023-03-17T03:58:52;0.80;;;0.80;;
11263;SDS011;5689;48.798;9.070;2023-03-17T04:01:21;0.90;;;0.90;;
11263;SDS011;5689;48.798;9.070;2023-03-17T04:03:51;0.70;;;0.70;;
11263;SDS011;5689;48.798;9.070;2023-03-17T04:06:19;0.80;;;0.80;;
11263;SDS011;5689;48.798;9.070;2023-03-17T04:08:47;0.70;;;0.70;;
11263;SDS011;5689;48.798;9.070;2023-03-17T04:11:15;0.70;;;0.70;;
11263;SDS011;5689;48.798;9.070;2023-03-17T04:13:43;0.70;;;0.70;;
11263;SDS011;5689;48.798;9.070;2023-03-17T04:16:11;0.80;;;0.80;;
11263;SDS011;5689;48.798;9.070;2023-03-17T04:18:39;0.70;;;0.70;;
11263;SDS011;5689;48.798;9.070;2023-03-17T04:21:08;0.63;;;0.63;;
11263;SDS011;5689;48.798;9.070;2023-03-17T04:23:36;0.60;;;0.60;;
11263;SDS011;5689;48.798;9.070;2023-03-17T04:26:04;0.70;;;0.70;;
11263;SDS011;5689;48.798;9.070;2023-03-17T04:28:32;0.70;;;0.70;;
11263;SDS011;5689;48.798;9.070;2023-03-17T04:31:00;0.77;;;0.77;;
11263;SDS011;5689;48.798;9.070;2023-03-17T04:33:28;0.70;;;0.70;;
11263;SDS011;5689;48.798;9.070;2023-03-17T04:35:56;0.90;;;0.90;;
11263;SDS011;5689;48.798;9.070;2023-03-17T04:38:26;0.70;;;0.70;;
11263;SDS011;5689;48.798;9.070;2023-03-17T04:40:54;0.70;;;0.70;;
11263;SDS011;5689;48.798;9.070;2023-03-17T04:43:22;0.77;;;0.77;;
11263;SDS011;5689;48.798;9.070;2023-03-17T04:45:50;0.80;;;0.80;;
11263;SDS011;5689;48.798;9.070;2023-03-17T04:48:18;0.70;;;0.70;;
11263;SDS011;5689;48.798;9.070;2023-03-17T04:50:46;0.80;;;0.80;;
11263;SDS011;5689;48.798;9.070;2023-03-17T04:53:15;0.80;;;0.80;;
11263;SDS011;5689;48.798;9.070;2023-03-17T04:55:44;0.70;;;0.70;;
11263;SDS011;5689;48.798;9.070;2023-03-17T04:58:12;0.70;;;0.70;;
11263;SDS011;5689;48.798;9.070;2023-03-17T05:00:54;0.80;;;0.80;;
11263;SDS011;5689;48.798;9.070;2023-03-17T05:03:23;0.73;;;0.73;;
11263;SDS011;5689;48.798;9.070;2023-03-17T05:05:53;0.80;;;0.80;;
11263;SDS011;5689;48.798;9.070;2023-03-17T05:08:21;0.80;;;0.80;;
11263;SDS011;5689;48.798;9.070;2023-03-17T05:10:50;0.70;;;0.70;;
11263;SDS011;5689;48.798;9.070;2023-03-17T05:13:18;0.70;;;0.70;;
11263;SDS011;5689;48.798;9.070;2023-03-17T05:15:46;0.70;;;0.70;;
11263;SDS011;5689;48.798;9.070;2023-03-17T05:18:15;0.80;;;0.80;;
11263;SDS011;5689;48.798;9.070;2023-03-17T05:20:44;0.93;;;0.93;;
11263;SDS011;5689;48.798;9.070;2023-03-17T05:23:12;0.70;;;0.70;;
11263;SDS011;5689;48.798;9.070;2023-03-17T05:25:40;0.90;;;0.90;;
11263;SDS011;5689;48.798;9.070;2023-03-17T05:28:09;0.80;;;0.80;;
11263;SDS011;5689;48.798;9.070;2023-03-17T05:30:38;0.77;;;0.77;;
11263;SDS011;5689;48.798;9.070;2023-03-17T05:33:06;0.87;;;0.87;;
11263;SDS011;5689;48.798;9.070;2023-03-17T05:35:35;0.80;;;0.80;;
11263;SDS011;5689;48.798;9.070;2023-03-17T05:38:03;0.73;;;0.73;;
11263;SDS011;5689;48.798;9.070;2023-03-17T05:40:32;0.90;;;0.90;;
11263;SDS011;5689;48.798;9.070;2023-03-17T05:43:00;0.80;;;0.80;;
11263;SDS011;5689;48.798;9.070;2023-03-17T05:45:30;0.90;;;0.90;;
11263;SDS011;5689;48.798;9.070;2023-03-17T05:47:58;0.80;;;0.80;;
11263;SDS011;5689;48.798;9.070;2023-03-17T05:50:26;0.80;;;0.80;;
11263;SDS011;5689;48.798;9.070;2023-03-17T05:52:54;0.80;;;0.80;;
11263;SDS011;5689;48.798;9.070;2023-03-17T05:55:22;0.70;;;0.70;;
11263;SDS011;5689;48.798;9.070;2023-03-17T05:57:50;0.90;;;0.90;;
11263;SDS011;5689;48.798;9.070;2023-03-17T06:00:19;0.77;;;0.77;;
11263;SDS011;5689;48.798;9.070;2023-03-17T06:02:49;0.80;;;0.80;;
11263;SDS011;5689;48.798;9.070;2023-03-17T06:05:17;0.80;;;0.80;;
11263;SDS011;5689;48.798;9.070;2023-03-17T06:07:45;0.80;;;0.80;;
11263;SDS011;5689;48.798;9.070;2023-03-17T06:10:21;0.70;;;0.70;;
11263;SDS011;5689;48.798;9.070;2023-03-17T06:12:49;0.60;;;0.60;;
11263;SDS011;5689;48.798;9.070;2023-03-17T06:15:17;0.80;;;0.80;;
11263;SDS011;5689;48.798;9.070;2023-03-17T06:17:45;0.70;;;0.70;;
11263;SDS011;5689;48.798;9.070;2023-03-17T06:20:14;0.60;;;0.60;;
11263;SDS011;5689;48.798;9.070;2023-03-17T06:22:43;0.63;;;0.63;;
11263;SDS011;5689;48.798;9.070;2023-03-17T06:25:27;0.80;;;0.80;;
11263;SDS011;5689;48.798;9.070;2023-03-17T06:27:56;0.70;;;0.70;;
11263;SDS011;5689;48.798;9.070;2023-03-17T06:30:23;0.70;;;0.70;;
11263;SDS011;5689;48.798;9.070;2023-03-17T06:32:52;0.70;;;0.70;;
11263;SDS011;5689;48.798;9.070;2023-03-17T06:35:21;0.70;;;0.70;;
11263;SDS011;5689;48.798;9.070;2023-03-17T06:37:50;0.67;;;0.67;;
11263;SDS011;5689;48.798;9.070;2023-03-17T06:40:19;0.67;;;0.67;;
11263;SDS011;5689;48.798;9.070;2023-03-17T06:42:47;0.60;;;0.60;;
11263;SDS011;5689;48.798;9.070;2023-03-17T06:45:15;0.63;;;0.63;;
11263;SDS011;5689;48.798;9.070;2023-03-17T06:47:43;0.77;;;0.77;;
11263;SDS011;5689;48.798;9.070;2023-03-17T06:50:11;0.63;;;0.63;;
11263;SDS011;5689;48.798;9.070;2023-03-17T06:52:41;0.60;;;0.60;;
11263;SDS011;5689;48.798;9.070;2023-03-17T06:55:11;0.53;;;0.53;;
11263;SDS011;5689;48.798;9.070;2023-03-17T06:57:40;0.40;;;0.40;;
11263;SDS011;5689;48.798;9.070;2023-03-17T07:00:08;0.30;;;0.30;;
11263;SDS011;5689;48.798;9.070;2023-03-17T07:02:39;0.30;;;0.30;;
11263;SDS011;5689;48.798;9.070;2023-03-17T07:05:07;0.20;;;0.20;;
11263;SDS011;5689;48.798;9.070;2023-03-17T07:07:35;0.20;;;0.20;;
11263;SDS011;5689;48.798;9.070;2023-03-17T07:10:06;0.10;;;0.10;;
11263;SDS011;5689;48.798;9.070;2023-03-17T07:12:35;0.10;;;0.10;;
11263;SDS011;5689;48.798;9.070;2023-03-17T07:15:03;0.10;;;0.10;;
11263;SDS011;5689;48.798;9.070;2023-03-17T07:17:32;0.10;;;0.10;;
11263;SDS011;5689;48.798;9.070;2023-03-17T07:20:00;0.10;;;0.10;;
11263;SDS011;5689;48.798;9.070;2023-03-17T07:22:28;0.10;;;0.10;;
11263;SDS011;5689;48.798;9.070;2023-03-17T07:24:56;0.10;;;0.10;;
11263;SDS011;5689;48.798;9.070;2023-03-17T07:27:25;0.10;;;0.10;;
11263;SDS011;5689;48.798;9.070;2023-03-17T07:29:54;0.10;;;0.10;;
11263;SDS011;5689;48.798;9.070;2023-03-17T07:32:22;0.13;;;0.13;;
11263;SDS011;5689;48.798;9.070;2023-03-17T07:34:50;0.20;;;0.20;;
11263;SDS011;5689;48.798;9.070;2023-03-17T07:37:18;0.20;;;0.20;;
11263;SDS011;5689;48.798;9.070;2023-03-17T07:39:46;0.28;;;0.28;;
11263;SDS011;5689;48.798;9.070;2023-03-17T07:42:14;0.20;;;0.20;;
11263;SDS011;5689;48.798;9.070;2023-03-17T07:44:44;0.20;;;0.20;;
11263;SDS011;5689;48.798;9.070;2023-03-17T07:47:12;0.20;;;0.20;;
11263;SDS011;5689;48.798;9.070;2023-03-17T07:49:41;0.20;;;0.20;;
11263;SDS011;5689;48.798;9.070;2023-03-17T07:52:09;0.20;;;0.20;;
11263;SDS011;5689;48.798;9.070;2023-03-17T07:54:38;0.20;;;0.20;;
11263;SDS011;5689;48.798;9.070;2023-03-17T07:57:08;0.20;;;0.20;;
11263;SDS011;5689;48.798;9.070;2023-03-17T07:59:36;0.15;;;0.15;;
11263;SDS011;5689;48.798;9.070;2023-03-17T08:02:06;0.20;;;0.20;;
11263;SDS011;5689;48.798;9.070;2023-03-17T08:04:37;0.10;;;0.10;;
11263;SDS011;5689;48.798;9.070;2023-03-17T08:07:05;0.20;;;0.20;;
11263;SDS011;5689;48.798;9.070;2023-03-17T08:09:33;0.20;;;0.20;;
11263;SDS011;5689;48.798;9.070;2023-03-17T08:12:02;0.10;;;0.10;;
11263;SDS011;5689;48.798;9.070;2023-03-17T08:14:31;0.20;;;0.20;;
11263;SDS011;5689;48.798;9.070;2023-03-17T08:16:59;0.10;;;0.10;;
11263;SDS011;5689;48.798;9.070;2023-03-17T08:19:29;0.20;;;0.20;;
11263;SDS011;5689;48.798;9.070;2023-03-17T08:21:57;0.10;;;0.10;;
11263;SDS011;5689;48.798;9.070;2023-03-17T08:24:25;0.10;;;0.10;;
11263;SDS011;5689;48.798;9.070;2023-03-17T08:26:53;0.10;;;0.10;;
11263;SDS011;5689;48.798;9.070;2023-03-17T08:29:21;0.10;;;0.10;;
11263;SDS011;5689;48.798;9.070;2023-03-17T08:31:49;0.10;;;0.10;;
11263;SDS011;5689;48.798;9.070;2023-03-17T08:34:17;0.20;;;0.20;;
11263;SDS011;5689;48.798;9.070;2023-03-17T08:36:46;0.15;;;0.15;;
11263;SDS011;5689;48.798;9.070;2023-03-17T08:39:14;0.20;;;0.20;;
11263;SDS011;5689;48.798;9.070;2023-03-17T08:41:42;0.10;;;0.10;;
11263;SDS011;5689;48.798;9.070;2023-03-17T08:44:12;0.20;;;0.20;;
11263;SDS011;5689;48.798;9.070;2023-03-17T08:46:40;0.20;;;0.20;;
11263;SDS011;5689;48.798;9.070;2023-03-17T08:49:09;0.20;;;0.20;;
11263;SDS011;5689;48.798;9.070;2023-03-17T08:51:38;0.10;;;0.10;;
11263;SDS011;5689;48.798;9.070;2023-03-17T08:54:08;0.20;;;0.20;;
11263;SDS011;5689;48.798;9.070;2023-03-17T08:56:38;0.20;;;0.20;;
11263;SDS011;5689;48.798;9.070;2023-03-17T08:59:07;0.10;;;0.10;;
11263;SDS011;5689;48.798;9.070;2023-03-17T09:01:36;0.10;;;0.10;;
11263;SDS011;5689;48.798;9.070;2023-03-17T09:04:05;0.00;;;0.00;;
11263;SDS011;5689;48.798;9.070;2023-03-17T09:06:34;0.10;;;0.10;;
11263;SDS011;5689;48.798;9.070;2023-03-17T09:09:02;0.10;;;0.10;;
11263;SDS011;5689;48.798;9.070;2023-03-17T09:11:33;0.10;;;0.10;;
11263;SDS011;5689;48.798;9.070;2023-03-17T09:14:01;0.10;;;0.10;;
11263;SDS011;5689;48.798;9.070;2023-03-17T09:16:29;0.10;;;0.10;;
11263;SDS011;5689;48.798;9.070;2023-03-17T09:18:59;0.10;;;0.10;;
11263;SDS011;5689;48.798;9.070;2023-03-17T09:21:27;0.10;;;0.10;;
11263;SDS011;5689;48.798;9.070;2023-03-17T09:23:55;0.05;;;0.05;;
11263;SDS011;5689;48.798;9.070;2023-03-17T09:26:24;0.10;;;0.10;;
11263;SDS011;5689;48.798;9.070;2023-03-17T09:28:53;0.10;;;0.10;;
11263;SDS011;5689;48.798;9.070;2023-03-17T09:31:21;0.10;;;0.10;;
11263;SDS011;5689;48.798;9.070;2023-03-17T09:33:49;0.05;;;0.05;;
11263;SDS011;5689;48.798;9.070;2023-03-17T09:36:18;0.10;;;0.10;;
11263;SDS011;5689;48.798;9.070;2023-03-17T09:38:46;0.10;;;0.10;;
11263;SDS011;5689;48.798;9.070;2023-03-17T09:44:49;0.10;;;0.10;;
11263;SDS011;5689;48.798;9.070;2023-03-17T09:47:45;0.17;;;0.17;;
11263;SDS011;5689;48.798;9.070;2023-03-17T09:50:24;0.10;;;0.10;;
11263;SDS011;5689;48.798;9.070;2023-03-17T09:52:55;0.00;;;0.00;;
11263;SDS011;5689;48.798;9.070;2023-03-17T09:55:29;0.10;;;0.10;;
11263;SDS011;5689;48.798;9.070;2023-03-17T09:57:59;0.10;;;0.10;;
11263;SDS011;5689;48.798;9.070;2023-03-17T10:00:30;0.10;;;0.10;;
11263;SDS011;5689;48.798;9.070;2023-03-17T10:02:58;0.10;;;0.10;;
11263;SDS011;5689;48.798;9.070;2023-03-17T10:05:27;0.10;;;0.10;;
11263;SDS011;5689;48.798;9.070;2023-03-17T10:08:00;0.10;;;0.10;;
11263;SDS011;5689;48.798;9.070;2023-03-17T10:10:44;0.10;;;0.10;;
11263;SDS011;5689;48.798;9.070;2023-03-17T10:13:20;0.10;;;0.10;;
11263;SDS011;5689;48.798;9.070;2023-03-17T10:15:57;0.10;;;0.10;;
11263;SDS011;5689;48.798;9.070;2023-03-17T10:18:31;0.10;;;0.10;;
11263;SDS011;5689;48.798;9.070;2023-03-17T10:21:03;0.10;;;0.10;;
11263;SDS011;5689;48.798;9.070;2023-03-17T10:23:34;0.10;;;0.10;;
11263;SDS011;5689;48.798;9.070;2023-03-17T10:26:04;0.10;;;0.10;;
11263;SDS011;5689;48.798;9.070;2023-03-17T10:28:38;0.10;;;0.10;;
11263;SDS011;5689;48.798;9.070;2023-03-17T10:31:13;0.10;;;0.10;;
11263;SDS011;5689;48.798;9.070;2023-03-17T10:33:43;0.10;;;0.10;;
11263;SDS011;5689;48.798;9.070;2023-03-17T10:36:14;0.10;;;0.10;;
11263;SDS011;5689;48.798;9.070;2023-03-17T10:38:49;0.15;;;0.15;;
11263;SDS011;5689;48.798;9.070;2023-03-17T10:41:17;0.10;;;0.10;;
11263;SDS011;5689;48.798;9.070;2023-03-17T10:43:46;0.20;;;0.20;;
11263;SDS011;5689;48.798;9.070;2023-03-17T10:49:01;0.13;;;0.13;;
11263;SDS011;5689;48.798;9.070;2023-03-17T10:51:33;0.10;;;0.10;;
11263;SDS011;5689;48.798;9.070;2023-03-17T10:54:06;0.00;;;0.00;;
11263;SDS011;5689;48.798;9.070;2023-03-17T10:56:36;0.10;;;0.10;;
11263;SDS011;5689;48.798;9.070;2023-03-17T10:59:14;0.00;;;0.00;;
11263;SDS011;5689;48.798;9.070;2023-03-17T11:01:45;0.00;;;0.00;;
11263;SDS011;5689;48.798;9.070;2023-03-17T11:04:22;0.00;;;0.00;;
11263;SDS011;5689;48.798;9.070;2023-03-17T11:06:57;0.00;;;0.00;;
11263;SDS011;5689;48.798;9.070;2023-03-17T11:09:26;0.03;;;0.03;;
11263;SDS011;5689;48.798;9.070;2023-03-17T11:12:01;0.00;;;0.00;;
11263;SDS011;5689;48.798;9.070;2023-03-17T11:14:31;0.10;;;0.10;;
11263;SDS011;5689;48.798;9.070;2023-03-17T11:17:01;0.00;;;0.00;;
11263;SDS011;5689;48.798;9.070;2023-03-17T11:19:36;0.03;;;0.03;;
11263;SDS011;5689;48.798;9.070;2023-03-17T11:22:10;0.00;;;0.00;;
11263;SDS011;5689;48.798;9.070;2023-03-17T11:24:45;0.00;;;0.00;;
11263;SDS011;5689;48.798;9.070;2023-03-17T11:27:23;0.00;;;0.00;;
11263;SDS011;5689;48.798;9.070;2023-03-17T11:30:02;0.00;;;0.00;;
11263;SDS011;5689;48.798;9.070;2023-03-17T11:32:40;0.00;;;0.00;;
11263;SDS011;5689;48.798;9.070;2023-03-17T11:35:21;0.00;;;0.00;;
11263;SDS011;5689;48.798;9.070;2023-03-17T11:38:03;0.00;;;0.00;;
11263;SDS011;5689;48.798;9.070;2023-03-17T11:40:53;0.00;;;0.00;;
11263;SDS011;5689;48.798;9.070;2023-03-17T11:43:42;0.00;;;0.00;;
11263;SDS011;5689;48.798;9.070;2023-03-17T11:46:27;0.00;;;0.00;;
11263;SDS011;5689;48.798;9.070;2023-03-17T11:48:57;0.00;;;0.00;;
11263;SDS011;5689;48.798;9.070;2023-03-17T11:51:34;0.10;;;0.10;;
11263;SDS011;5689;48.798;9.070;2023-03-17T11:54:16;0.00;;;0.00;;
11263;SDS011;5689;48.798;9.070;2023-03-17T11:56:55;0.00;;;0.00;;
11263;SDS011;5689;48.798;9.070;2023-03-17T11:59:27;0.00;;;0.00;;
11263;SDS011;5689;48.798;9.070;2023-03-17T12:02:03;0.10;;;0.10;;
11263;SDS011;5689;48.798;9.070;2023-03-17T12:04:42;0.10;;;0.10;;
11263;SDS011;5689;48.798;9.070;2023-03-17T12:07:21;0.10;;;0.10;;
11263;SDS011;5689;48.798;9.070;2023-03-17T12:09:54;0.08;;;0.08;;
11263;SDS011;5689;48.798;9.070;2023-03-17T12:12:30;0.10;;;0.10;;
11263;SDS011;5689;48.798;9.070;2023-03-17T12:15:02;0.10;;;0.10;;
11263;SDS011;5689;48.798;9.070;2023-03-17T12:17:37;0.10;;;0.10;;
11263;SDS011;5689;48.798;9.070;2023-03-17T12:20:14;0.00;;;0.00;;
11263;SDS011;5689;48.798;9.070;2023-03-17T12:22:49;0.10;;;0.10;;
11263;SDS011;5689;48.798;9.070;2023-03-17T12:25:23;0.10;;;0.10;;
11263;SDS011;5689;48.798;9.070;2023-03-17T12:27:58;0.00;;;0.00;;
11263;SDS011;5689;48.798;9.070;2023-03-17T12:30:31;0.00;;;0.00;;
11263;SDS011;5689;48.798;9.070;2023-03-17T12:33:05;0.10;;;0.10;;
11263;SDS011;5689;48.798;9.070;2023-03-17T12:35:42;0.10;;;0.10;;
11263;SDS011;5689;48.798;9.070;2023-03-17T12:38:13;0.10;;;0.10;;
11263;SDS011;5689;48.798;9.070;2023-03-17T12:40:50;0.10;;;0.10;;
11263;SDS011;5689;48.798;9.070;2023-03-17T12:43:45;0.03;;;0.03;;
11263;SDS011;5689;48.798;9.070;2023-03-17T12:46:23;0.00;;;0.00;;
11263;SDS011;5689;48.798;9.070;2023-03-17T12:49:04;0.10;;;0.10;;
11263;SDS011;5689;48.798;9.070;2023-03-17T12:51:51;0.00;;;0.00;;
11263;SDS011;5689;48.798;9.070;2023-03-17T12:54:29;0.10;;;0.10;;
11263;SDS011;5689;48.798;9.070;2023-03-17T12:57:00;0.10;;;0.10;;
11263;SDS011;5689;48.798;9.070;2023-03-17T12:59:31;0.10;;;0.10;;
11263;SDS011;5689;48.798;9.070;2023-03-17T13:02:12;0.10;;;0.10;;
11263;SDS011;5689;48.798;9.070;2023-03-17T13:04:47;0.00;;;0.00;;
11263;SDS011;5689;48.798;9.070;2023-03-17T13:07:23;0.10;;;0.10;;
11263;SDS011;5689;48.798;9.070;2023-03-17T13:13:10;0.10;;;0.10;;
11263;SDS011;5689;48.798;9.070;2023-03-17T13:15:55;0.10;;;0.10;;
11263;SDS011;5689;48.798;9.070;2023-03-17T13:21:17;0.00;;;0.00;;
11263;SDS011;5689;48.798;9.070;2023-03-17T13:23:52;0.08;;;0.08;;
11263;SDS011;5689;48.798;9.070;2023-03-17T13:29:36;0.00;;;0.00;;
11263;SDS011;5689;48.798;9.070;2023-03-17T13:41:03;0.00;;;0.00;;
11263;SDS011;5689;48.798;9.070;2023-03-17T13:44:01;0.00;;;0.00;;
11263;SDS011;5689;48.798;9.070;2023-03-17T13:46:41;0.10;;;0.10;;
11263;SDS011;5689;48.798;9.070;2023-03-17T13:49:18;0.20;;;0.10;;
11263;SDS011;5689;48.798;9.070;2023-03-17T13:51:50;0.00;;;0.00;;
11263;SDS011;5689;48.798;9.070;2023-03-17T13:54:29;0.08;;;0.08;;
11263;SDS011;5689;48.798;9.070;2023-03-17T13:59:54;0.00;;;0.00;;
11263;SDS011;5689;48.798;9.070;2023-03-17T14:02:30;0.00;;;0.00;;
11263;SDS011;5689;48.798;9.070;2023-03-17T14:05:02;0.10;;;0.10;;
11263;SDS011;5689;48.798;9.070;2023-03-17T14:07:38;0.00;;;0.00;;
11263;SDS011;5689;48.798;9.070;2023-03-17T14:10:11;0.00;;;0.00;;
11263;SDS011;5689;48.798;9.070;2023-03-17T14:12:44;0.00;;;0.00;;
11263;SDS011;5689;48.798;9.070;2023-03-17T14:15:20;0.10;;;0.10;;
11263;SDS011;5689;48.798;9.070;2023-03-17T14:17:55;0.00;;;0.00;;
11263;SDS011;5689;48.798;9.070;2023-03-17T14:20:27;0.00;;;0.00;;
11263;SDS011;5689;48.798;9.070;2023-03-17T14:22:55;0.00;;;0.00;;
11263;SDS011;5689;48.798;9.070;2023-03-17T14:25:27;0.00;;;0.00;;
11263;SDS011;5689;48.798;9.070;2023-03-17T14:27:59;0.00;;;0.00;;
11263;SDS011;5689;48.798;9.070;2023-03-17T14:30:36;0.00;;;0.00;;
11263;SDS011;5689;48.798;9.070;2023-03-17T14:33:08;0.00;;;0.00;;
11263;SDS011;5689;48.798;9.070;2023-03-17T14:35:44;0.00;;;0.00;;
11263;SDS011;5689;48.798;9.070;2023-03-17T14:38:14;0.10;;;0.10;;
11263;SDS011;5689;48.798;9.070;2023-03-17T14:40:45;0.00;;;0.00;;
11263;SDS011;5689;48.798;9.070;2023-03-17T14:43:13;0.00;;;0.00;;
11263;SDS011;5689;48.798;9.070;2023-03-17T14:45:48;0.08;;;0.08;;
11263;SDS011;5689;48.798;9.070;2023-03-17T14:48:21;0.10;;;0.10;;
11263;SDS011;5689;48.798;9.070;2023-03-17T14:50:53;0.10;;;0.10;;
11263;SDS011;5689;48.798;9.070;2023-03-17T14:53:22;0.08;;;0.08;;
11263;SDS011;5689;48.798;9.070;2023-03-17T14:55:51;0.00;;;0.00;;
11263;SDS011;5689;48.798;9.070;2023-03-17T14:58:21;0.08;;;0.08;;
11263;SDS011;5689;48.798;9.070;2023-03-17T15:00:54;0.10;;;0.10;;
11263;SDS011;5689;48.798;9.070;2023-03-17T15:03:26;0.10;;;0.10;;
11263;SDS011;5689;48.798;9.070;2023-03-17T15:06:04;0.10;;;0.10;;
11263;SDS011;5689;48.798;9.070;2023-03-17T15:08:37;0.03;;;0.03;;
11263;SDS011;5689;48.798;9.070;2023-03-17T15:11:13;0.00;;;0.00;;
11263;SDS011;5689;48.798;9.070;2023-03-17T15:13:47;0.00;;;0.00;;
11263;SDS011;5689;48.798;9.070;2023-03-17T15:16:19;0.00;;;0.00;;
11263;SDS011;5689;48.798;9.070;2023-03-17T15:18:52;0.10;;;0.10;;
11263;SDS011;5689;48.798;9.070;2023-03-17T15:21:30;0.10;;;0.10;;
11263;SDS011;5689;48.798;9.070;2023-03-17T15:24:05;0.10;;;0.10;;
11263;SDS011;5689;48.798;9.070;2023-03-17T15:26:47;0.05;;;0.05;;
11263;SDS011;5689;48.798;9.070;2023-03-17T15:29:15;0.10;;;0.10;;
11263;SDS011;5689;48.798;9.070;2023-03-17T15:31:45;0.10;;;0.10;;
11263;SDS011;5689;48.798;9.070;2023-03-17T15:34:13;0.10;;;0.10;;
11263;SDS011;5689;48.798;9.070;2023-03-17T15:36:41;0.10;;;0.10;;
11263;SDS011;5689;48.798;9.070;2023-03-17T15:39:12;0.00;;;0.00;;
11263;SDS011;5689;48.798;9.070;2023-03-17T15:41:40;0.10;;;0.10;;
11263;SDS011;5689;48.798;9.070;2023-03-17T15:44:08;0.10;;;0.10;;
11263;SDS011;5689;48.798;9.070;2023-03-17T15:46:37;0.10;;;0.10;;
11263;SDS011;5689;48.798;9.070;2023-03-17T15:49:09;0.10;;;0.10;;
11263;SDS011;5689;48.798;9.070;2023-03-17T15:51:37;0.10;;;0.10;;